createdAt,value
2023-08-17T00:00:48.190Z,17.78
2023-08-17T00:03:34.844Z,17.82
2023-08-17T00:06:02.959Z,17.86
2023-08-17T00:08:31.019Z,17.83
2023-08-17T00:10:59.097Z,17.83
2023-08-17T00:13:26.955Z,17.89
2023-08-17T00:15:54.999Z,17.89
2023-08-17T00:18:22.921Z,17.91
2023-08-17T00:20:51.180Z,17.92
2023-08-17T00:23:19.361Z,17.87
2023-08-17T00:25:48.899Z,17.91
2023-08-17T00:28:16.830Z,17.96
2023-08-17T00:30:44.806Z,17.99
2023-08-17T00:33:12.715Z,17.97
2023-08-17T00:35:42.181Z,17.85
2023-08-17T00:38:10.217Z,17.73
2023-08-17T00:40:38.874Z,17.64
2023-08-17T00:43:06.965Z,17.66
2023-08-17T00:45:35.483Z,17.70
2023-08-17T00:48:04.820Z,17.73
2023-08-17T00:50:33.010Z,17.76
2023-08-17T00:53:01.224Z,17.77
2023-08-17T00:55:29.715Z,17.79
2023-08-17T00:57:58.942Z,17.80
2023-08-17T01:00:29.860Z,17.85
2023-08-17T01:02:59.558Z,17.92
2023-08-17T01:05:27.832Z,17.88
2023-08-17T01:07:57.746Z,17.87
2023-08-17T01:10:31.474Z,17.91
2023-08-17T01:13:22.238Z,17.89
2023-08-17T01:15:53.316Z,17.81
2023-08-17T01:18:27.868Z,17.83
2023-08-17T01:20:56.925Z,17.81
2023-08-17T01:23:25.227Z,17.77
2023-08-17T01:25:54.946Z,17.79
2023-08-17T01:28:22.956Z,17.78
2023-08-17T01:30:56.225Z,17.78
2023-08-17T01:33:29.089Z,17.78
2023-08-17T01:36:10.390Z,17.86
2023-08-17T01:38:40.047Z,17.94
2023-08-17T01:41:14.477Z,17.87
2023-08-17T01:43:48.998Z,17.80
2023-08-17T01:46:18.087Z,17.76
2023-08-17T01:48:46.870Z,17.69
2023-08-17T01:51:21.096Z,17.59
2023-08-17T01:53:49.751Z,17.59
2023-08-17T01:56:17.916Z,17.60
2023-08-17T01:58:46.633Z,17.60
2023-08-17T02:01:14.761Z,17.54
2023-08-17T02:03:42.780Z,17.49
2023-08-17T02:06:11.548Z,17.46
2023-08-17T02:08:40.439Z,17.42
2023-08-17T02:11:08.497Z,17.40
2023-08-17T02:13:37.481Z,17.36
2023-08-17T02:16:06.068Z,17.34
2023-08-17T02:18:36.026Z,17.35
2023-08-17T02:21:04.407Z,17.38
2023-08-17T02:23:33.478Z,17.39
2023-08-17T02:26:01.732Z,17.34
2023-08-17T02:28:29.561Z,17.15
2023-08-17T02:30:59.408Z,17.05
2023-08-17T02:33:29.523Z,17.05
2023-08-17T02:35:57.327Z,17.05
2023-08-17T02:38:25.326Z,17.08
2023-08-17T02:40:53.113Z,17.08
2023-08-17T02:43:21.043Z,17.07
2023-08-17T02:45:49.069Z,17.12
2023-08-17T02:48:16.852Z,17.11
2023-08-17T02:50:45.202Z,17.15
2023-08-17T02:53:13.156Z,17.26
2023-08-17T02:55:41.131Z,17.33
2023-08-17T02:58:10.257Z,17.35
2023-08-17T03:00:38.002Z,17.38
2023-08-17T03:03:06.620Z,17.43
2023-08-17T03:05:35.256Z,17.42
2023-08-17T03:08:03.296Z,17.31
2023-08-17T03:10:31.991Z,17.26
2023-08-17T03:13:00.570Z,17.17
2023-08-17T03:15:28.810Z,17.07
2023-08-17T03:17:57.110Z,17.02
2023-08-17T03:20:25.344Z,17.00
2023-08-17T03:22:53.327Z,16.99
2023-08-17T03:25:21.987Z,16.87
2023-08-17T03:27:50.135Z,16.73
2023-08-17T03:30:18.296Z,16.77
2023-08-17T03:32:46.283Z,16.85
2023-08-17T03:35:14.465Z,16.89
2023-08-17T03:37:43.137Z,16.87
2023-08-17T03:40:11.646Z,16.91
2023-08-17T03:42:42.883Z,16.95
2023-08-17T03:45:10.771Z,17.05
2023-08-17T03:47:39.017Z,17.14
2023-08-17T03:50:07.253Z,17.25
2023-08-17T03:52:35.557Z,17.30
2023-08-17T03:55:03.857Z,17.33
2023-08-17T03:57:34.163Z,17.38
2023-08-17T04:00:02.506Z,17.48
2023-08-17T04:02:30.423Z,17.72
2023-08-17T04:04:58.810Z,17.99
2023-08-17T04:07:26.943Z,18.27
2023-08-17T04:09:56.074Z,18.61
2023-08-17T04:12:24.725Z,19.06
2023-08-17T04:14:52.929Z,19.40
2023-08-17T04:17:22.385Z,19.50
2023-08-17T04:19:50.677Z,19.44
2023-08-17T04:22:18.390Z,19.37
2023-08-17T04:24:46.510Z,19.39
2023-08-17T04:27:15.611Z,19.40
2023-08-17T04:29:44.007Z,19.44
2023-08-17T04:32:16.790Z,19.43
2023-08-17T04:34:46.172Z,19.28
2023-08-17T04:37:16.014Z,19.08
2023-08-17T04:39:44.691Z,18.92
2023-08-17T04:42:16.960Z,18.85
2023-08-17T04:44:46.029Z,18.91
2023-08-17T04:47:14.101Z,18.99
2023-08-17T04:49:43.478Z,19.04
2023-08-17T04:52:11.391Z,19.03
2023-08-17T04:54:39.435Z,19.01
2023-08-17T04:57:07.181Z,19.04
2023-08-17T04:59:34.979Z,19.04
2023-08-17T05:02:03.357Z,19.09
2023-08-17T05:04:32.167Z,19.18
2023-08-17T05:06:59.894Z,19.31
2023-08-17T05:09:28.778Z,19.44
2023-08-17T05:11:56.874Z,19.67
2023-08-17T05:14:24.722Z,19.93
2023-08-17T05:16:52.595Z,20.19
2023-08-17T05:19:21.005Z,20.42
2023-08-17T05:21:51.553Z,20.71
2023-08-17T05:24:21.716Z,21.04
2023-08-17T05:26:49.816Z,21.26
2023-08-17T05:29:17.945Z,21.45
2023-08-17T05:31:46.141Z,21.56
2023-08-17T05:34:14.441Z,21.65
2023-08-17T05:36:42.531Z,21.67
2023-08-17T05:39:10.864Z,21.67
2023-08-17T05:41:38.769Z,21.77
2023-08-17T05:44:08.234Z,21.84
2023-08-17T05:46:36.412Z,21.94
2023-08-17T05:49:07.640Z,22.04
2023-08-17T05:51:36.025Z,22.19
2023-08-17T05:54:04.619Z,22.36
2023-08-17T05:56:32.469Z,22.49
2023-08-17T05:59:00.485Z,22.63
2023-08-17T06:01:28.296Z,22.81
2023-08-17T06:03:56.609Z,22.90
2023-08-17T06:06:24.531Z,22.82
2023-08-17T06:08:52.733Z,22.65
2023-08-17T06:11:20.690Z,22.50
2023-08-17T06:13:48.656Z,22.41
2023-08-17T06:16:17.079Z,22.37
2023-08-17T06:18:45.004Z,22.36
2023-08-17T06:21:13.075Z,22.38
2023-08-17T06:23:40.939Z,22.39
2023-08-17T06:26:09.256Z,22.35
2023-08-17T06:28:37.202Z,22.40
2023-08-17T06:31:05.044Z,22.60
2023-08-17T06:33:33.488Z,22.88
2023-08-17T06:36:01.594Z,23.21
2023-08-17T06:38:29.490Z,23.57
2023-08-17T06:40:57.224Z,23.99
2023-08-17T06:43:25.040Z,24.38
2023-08-17T06:45:52.803Z,24.52
2023-08-17T06:48:20.679Z,24.47
2023-08-17T06:50:49.317Z,24.53
2023-08-17T06:53:17.481Z,24.51
2023-08-17T06:55:45.296Z,24.47
2023-08-17T06:58:13.523Z,24.60
2023-08-17T07:00:42.202Z,24.87
2023-08-17T07:03:12.758Z,25.24
2023-08-17T07:05:40.513Z,25.62
2023-08-17T07:08:08.318Z,25.89
2023-08-17T07:10:36.427Z,25.84
2023-08-17T07:13:04.686Z,25.73
2023-08-17T07:15:33.111Z,25.86
2023-08-17T07:18:01.067Z,26.07
2023-08-17T07:20:28.965Z,26.29
2023-08-17T07:22:57.076Z,26.53
2023-08-17T07:25:25.043Z,26.78
2023-08-17T07:27:52.953Z,26.94
2023-08-17T07:30:20.887Z,26.93
2023-08-17T07:32:49.080Z,27.05
2023-08-17T07:35:16.992Z,27.23
2023-08-17T07:37:50.318Z,27.45
2023-08-17T07:40:24.245Z,27.64
2023-08-17T07:42:54.444Z,27.78
2023-08-17T07:45:22.552Z,27.77
2023-08-17T07:47:50.842Z,27.62
2023-08-17T07:50:18.852Z,27.75
2023-08-17T07:52:46.843Z,27.89
2023-08-17T07:55:14.729Z,28.01
2023-08-17T07:57:42.945Z,28.18
2023-08-17T08:00:11.016Z,28.49
2023-08-17T08:02:38.909Z,28.71
2023-08-17T08:05:07.441Z,29.02
2023-08-17T08:07:35.345Z,29.14
2023-08-17T08:10:03.765Z,29.21
2023-08-17T08:12:31.690Z,29.28
2023-08-17T08:14:59.579Z,29.36
2023-08-17T08:17:28.033Z,29.42
2023-08-17T08:19:56.742Z,29.28
2023-08-17T08:22:25.124Z,29.41
2023-08-17T08:24:53.131Z,29.44
2023-08-17T08:27:20.981Z,29.50
2023-08-17T08:29:49.343Z,29.60
2023-08-17T08:32:17.712Z,29.91
2023-08-17T08:34:46.086Z,30.08
2023-08-17T08:37:13.962Z,30.50
2023-08-17T08:39:52.276Z,30.75
2023-08-17T08:42:20.954Z,30.56
2023-08-17T08:44:50.246Z,30.47
2023-08-17T08:47:19.022Z,30.47
2023-08-17T08:50:04.028Z,30.41
2023-08-17T08:52:36.320Z,30.28
2023-08-17T08:55:12.697Z,30.34
2023-08-17T08:57:41.031Z,30.74
2023-08-17T09:00:10.653Z,30.95
2023-08-17T09:02:39.388Z,31.01
2023-08-17T09:05:07.978Z,31.03
2023-08-17T09:07:36.052Z,30.88
2023-08-17T09:10:04.857Z,30.77
2023-08-17T09:12:40.108Z,30.69
2023-08-17T09:15:09.085Z,30.64
2023-08-17T09:17:37.149Z,30.95
2023-08-17T09:20:05.941Z,31.13
2023-08-17T09:22:36.875Z,31.14
2023-08-17T09:25:05.164Z,31.40
2023-08-17T09:27:33.859Z,31.65
2023-08-17T09:30:05.268Z,31.73
2023-08-17T09:32:34.354Z,31.73
2023-08-17T09:35:03.410Z,31.66
2023-08-17T09:37:31.569Z,31.78
2023-08-17T09:40:00.037Z,31.87
2023-08-17T09:42:28.651Z,32.03
2023-08-17T09:44:56.808Z,32.04
2023-08-17T09:47:24.813Z,32.08
2023-08-17T09:49:55.879Z,32.49
2023-08-17T09:52:25.683Z,32.72
2023-08-17T09:54:55.835Z,32.91
2023-08-17T09:57:24.948Z,32.78
2023-08-17T09:59:56.259Z,32.61
2023-08-17T10:02:26.003Z,32.54
2023-08-17T10:04:55.619Z,32.62
2023-08-17T10:07:25.599Z,32.76
2023-08-17T10:10:06.426Z,32.86
2023-08-17T10:12:37.736Z,32.75
2023-08-17T10:15:08.749Z,32.85
2023-08-17T10:17:40.887Z,33.07
2023-08-17T10:20:09.412Z,33.16
2023-08-17T10:22:41.263Z,33.22
2023-08-17T10:25:10.046Z,33.34
2023-08-17T10:27:38.742Z,33.19
2023-08-17T10:30:09.432Z,33.16
2023-08-17T10:32:38.061Z,33.06
2023-08-17T10:35:06.861Z,32.92
2023-08-17T10:37:35.401Z,32.82
2023-08-17T10:40:03.598Z,32.99
2023-08-17T10:42:36.515Z,33.02
2023-08-17T10:45:40.320Z,33.22
2023-08-17T10:48:08.734Z,33.53
2023-08-17T10:50:42.762Z,33.73
2023-08-17T10:53:17.194Z,33.76
2023-08-17T10:55:53.556Z,33.72
2023-08-17T10:58:21.661Z,33.58
2023-08-17T11:00:55.589Z,33.45
2023-08-17T11:03:30.026Z,33.27
2023-08-17T11:05:59.436Z,33.25
2023-08-17T11:08:33.012Z,33.14
2023-08-17T11:11:05.249Z,33.23
2023-08-17T11:13:34.448Z,33.60
2023-08-17T11:16:04.217Z,33.87
2023-08-17T11:18:32.972Z,33.85
2023-08-17T11:21:01.740Z,34.12
2023-08-17T11:23:30.679Z,34.08
2023-08-17T11:25:59.074Z,34.03
2023-08-17T11:28:27.868Z,34.26
2023-08-17T11:31:03.767Z,34.06
2023-08-17T11:33:32.230Z,34.28
2023-08-17T11:36:04.002Z,34.12
2023-08-17T11:38:33.258Z,33.70
2023-08-17T11:41:01.638Z,33.62
2023-08-17T11:43:29.937Z,33.53
2023-08-17T11:45:58.631Z,33.45
2023-08-17T11:48:27.306Z,33.59
2023-08-17T11:50:56.182Z,33.45
2023-08-17T11:53:24.052Z,33.41
2023-08-17T11:58:37.289Z,33.96
2023-08-17T12:01:09.817Z,33.70
2023-08-17T12:03:38.140Z,33.51
2023-08-17T12:06:06.261Z,33.58
2023-08-17T12:08:34.888Z,33.65
2023-08-17T12:11:03.977Z,33.38
2023-08-17T12:13:35.659Z,33.06
2023-08-17T12:16:04.872Z,33.19
2023-08-17T12:18:33.748Z,33.38
2023-08-17T12:21:04.868Z,33.49
2023-08-17T12:23:34.080Z,33.19
2023-08-17T12:26:02.030Z,32.90
2023-08-17T12:28:30.318Z,32.76
2023-08-17T12:30:59.624Z,33.00
2023-08-17T12:33:28.058Z,33.17
2023-08-17T12:35:56.545Z,33.11
2023-08-17T12:38:25.561Z,32.99
2023-08-17T12:40:53.855Z,32.98
2023-08-17T12:43:22.208Z,32.84
2023-08-17T12:45:50.798Z,32.83
2023-08-17T12:48:18.700Z,32.93
2023-08-17T12:50:46.836Z,32.96
2023-08-17T12:53:15.201Z,32.89
2023-08-17T12:55:43.489Z,32.79
2023-08-17T12:58:11.363Z,32.76
2023-08-17T13:00:39.218Z,32.76
2023-08-17T13:03:08.339Z,32.82
2023-08-17T13:05:38.641Z,32.99
2023-08-17T13:08:07.017Z,32.88
2023-08-17T13:10:34.950Z,32.78
2023-08-17T13:13:02.912Z,32.50
2023-08-17T13:15:30.916Z,32.39
2023-08-17T13:17:58.950Z,32.44
2023-08-17T13:20:27.061Z,32.53
2023-08-17T13:22:54.999Z,32.47
2023-08-17T13:25:22.781Z,32.31
2023-08-17T13:27:50.857Z,32.12
2023-08-17T13:30:18.837Z,32.02
2023-08-17T13:32:47.233Z,32.04
2023-08-17T13:35:15.625Z,32.11
2023-08-17T13:37:43.559Z,32.24
2023-08-17T13:40:11.947Z,32.35
2023-08-17T13:42:39.895Z,32.39
2023-08-17T13:45:08.186Z,32.23
2023-08-17T13:47:36.197Z,32.01
2023-08-17T13:50:04.616Z,31.99
2023-08-17T13:52:32.677Z,31.98
2023-08-17T13:55:00.444Z,32.01
2023-08-17T13:57:28.463Z,32.10
2023-08-17T13:59:56.703Z,32.17
2023-08-17T14:02:25.201Z,32.23
2023-08-17T14:04:54.537Z,32.22
2023-08-17T14:07:22.378Z,32.21
2023-08-17T14:10:05.614Z,32.09
2023-08-17T14:12:35.990Z,31.93
2023-08-17T14:15:04.364Z,31.86
2023-08-17T14:17:32.340Z,31.81
2023-08-17T14:20:00.512Z,31.81
2023-08-17T14:22:28.644Z,31.79
2023-08-17T14:24:56.955Z,31.83
2023-08-17T14:27:24.941Z,31.88
2023-08-17T14:29:52.926Z,31.86
2023-08-17T14:32:20.874Z,31.84
2023-08-17T14:34:49.035Z,31.87
2023-08-17T14:37:17.926Z,31.90
2023-08-17T14:39:45.815Z,31.87
2023-08-17T14:42:14.139Z,31.78
2023-08-17T14:44:42.894Z,31.76
2023-08-17T14:47:11.701Z,31.73
2023-08-17T14:49:40.797Z,31.66
2023-08-17T14:52:08.680Z,31.61
2023-08-17T14:57:10.883Z,31.53
2023-08-17T14:59:38.989Z,31.41
2023-08-17T15:02:07.266Z,31.36
2023-08-17T15:04:39.222Z,31.36
2023-08-17T15:07:11.690Z,31.33
2023-08-17T15:09:39.891Z,31.24
2023-08-17T15:12:07.980Z,31.16
2023-08-17T15:14:35.788Z,31.09
2023-08-17T15:17:03.972Z,30.95
2023-08-17T15:19:40.330Z,30.88
2023-08-17T15:24:44.556Z,30.60
2023-08-17T15:27:13.547Z,30.51
2023-08-17T15:29:49.707Z,30.55
2023-08-17T15:32:17.777Z,30.60
2023-08-17T15:34:45.576Z,30.67
2023-08-17T15:37:13.492Z,30.73
2023-08-17T15:39:41.272Z,30.72
2023-08-17T15:42:09.342Z,30.68
2023-08-17T15:44:37.500Z,30.70
2023-08-17T15:47:05.687Z,30.68
2023-08-17T15:49:33.864Z,30.61
2023-08-17T15:52:03.986Z,30.51
2023-08-17T15:54:36.954Z,30.47
2023-08-17T15:57:06.012Z,30.41
2023-08-17T15:59:34.370Z,30.31
2023-08-17T16:02:02.525Z,30.18
2023-08-17T16:04:30.522Z,30.11
2023-08-17T16:06:58.648Z,30.03
2023-08-17T16:09:30.761Z,30.00
2023-08-17T16:11:59.278Z,29.96
2023-08-17T16:14:27.957Z,29.91
2023-08-17T16:16:57.416Z,29.80
2023-08-17T16:19:25.687Z,29.72
2023-08-17T16:21:53.719Z,29.71
2023-08-17T16:24:26.522Z,29.65
2023-08-17T16:26:55.892Z,29.61
2023-08-17T16:29:24.080Z,29.58
2023-08-17T16:32:08.774Z,29.53
2023-08-17T16:34:37.789Z,29.43
2023-08-17T16:37:06.320Z,29.36
2023-08-17T16:39:34.430Z,29.28
2023-08-17T16:42:02.767Z,29.17
2023-08-17T16:44:31.048Z,29.10
2023-08-17T16:46:59.058Z,29.01
2023-08-17T16:51:59.187Z,28.82
2023-08-17T16:54:27.141Z,28.75
2023-08-17T16:56:55.177Z,28.74
2023-08-17T16:59:23.049Z,28.73
2023-08-17T17:01:51.456Z,28.67
2023-08-17T17:04:19.635Z,28.56
2023-08-17T17:06:47.669Z,28.44
2023-08-17T17:09:15.658Z,28.28
2023-08-17T17:11:43.724Z,28.13
2023-08-17T17:14:11.899Z,28.01
2023-08-17T17:16:39.818Z,27.87
2023-08-17T17:19:07.825Z,27.80
2023-08-17T17:21:35.909Z,27.70
2023-08-17T17:24:04.167Z,27.56
2023-08-17T17:26:33.062Z,27.28
2023-08-17T17:29:02.007Z,26.95
2023-08-17T17:31:30.673Z,26.61
2023-08-17T17:33:58.559Z,26.25
2023-08-17T17:36:27.183Z,25.92
2023-08-17T17:38:55.269Z,25.62
2023-08-17T17:41:23.425Z,25.31
2023-08-17T17:43:51.704Z,25.07
2023-08-17T17:46:20.116Z,24.86
2023-08-17T17:48:48.310Z,24.70
2023-08-17T17:51:16.528Z,24.61
2023-08-17T17:53:44.503Z,24.52
2023-08-17T17:56:13.892Z,24.46
2023-08-17T17:58:41.893Z,24.41
2023-08-17T18:01:10.070Z,24.39
2023-08-17T18:03:38.215Z,24.39
2023-08-17T18:06:06.512Z,24.37
2023-08-17T18:08:35.095Z,24.35
2023-08-17T18:11:03.442Z,24.35
2023-08-17T18:13:31.838Z,24.32
2023-08-17T18:15:59.890Z,24.29
2023-08-17T18:18:28.275Z,24.26
2023-08-17T18:20:56.264Z,24.21
2023-08-17T18:23:24.413Z,24.19
2023-08-17T18:25:52.281Z,24.19
2023-08-17T18:28:20.185Z,24.19
2023-08-17T18:30:48.130Z,24.17
2023-08-17T18:33:16.178Z,24.10
2023-08-17T18:35:44.373Z,24.00
2023-08-17T18:38:12.424Z,23.93
2023-08-17T18:40:40.636Z,23.90
2023-08-17T18:43:08.671Z,23.88
2023-08-17T18:45:36.848Z,23.87
2023-08-17T18:48:05.050Z,23.87
2023-08-17T18:50:33.292Z,23.87
2023-08-17T18:53:03.450Z,23.86
2023-08-17T18:55:33.187Z,23.85
2023-08-17T18:58:01.924Z,23.83
2023-08-17T19:00:29.943Z,23.79
2023-08-17T19:02:57.851Z,23.72
2023-08-17T19:05:26.022Z,23.67
2023-08-17T19:07:54.605Z,23.66
2023-08-17T19:10:22.605Z,23.65
2023-08-17T19:12:50.521Z,23.62
2023-08-17T19:15:19.218Z,23.57
2023-08-17T19:17:47.324Z,23.54
2023-08-17T19:20:15.485Z,23.52
2023-08-17T19:22:43.325Z,23.51
2023-08-17T19:25:11.606Z,23.49
2023-08-17T19:27:41.485Z,23.48
2023-08-17T19:30:11.668Z,23.46
2023-08-17T19:32:41.679Z,23.45
2023-08-17T19:35:10.473Z,23.41
2023-08-17T19:37:38.718Z,23.38
2023-08-17T19:40:07.095Z,23.34
2023-08-17T19:42:35.061Z,23.31
2023-08-17T19:45:04.669Z,23.30
2023-08-17T19:47:33.013Z,23.28
2023-08-17T19:50:01.148Z,23.26
2023-08-17T19:52:29.395Z,23.26
2023-08-17T19:54:58.442Z,23.28
2023-08-17T19:57:29.667Z,23.29
2023-08-17T19:59:57.807Z,23.30
2023-08-17T20:02:25.909Z,23.32
2023-08-17T20:04:54.057Z,23.32
2023-08-17T20:07:22.033Z,23.33
2023-08-17T20:09:52.494Z,23.33
2023-08-17T20:12:20.825Z,23.34
2023-08-17T20:14:48.935Z,23.33
2023-08-17T20:17:19.830Z,23.32
2023-08-17T20:19:47.828Z,23.34
2023-08-17T20:22:15.732Z,23.35
2023-08-17T20:24:44.581Z,23.37
2023-08-17T20:27:12.420Z,23.41
2023-08-17T20:29:40.506Z,23.45
2023-08-17T20:32:08.463Z,23.47
2023-08-17T20:34:37.581Z,23.53
2023-08-17T20:37:05.615Z,23.56
2023-08-17T20:39:33.824Z,23.58
2023-08-17T20:42:08.135Z,23.61
2023-08-17T20:44:36.192Z,23.66
2023-08-17T20:47:09.529Z,23.66
2023-08-17T20:49:37.869Z,23.64
2023-08-17T20:52:05.865Z,23.61
2023-08-17T20:54:33.741Z,23.60
2023-08-17T20:57:02.065Z,23.61
2023-08-17T20:59:29.864Z,23.64
2023-08-17T21:01:58.003Z,23.67
2023-08-17T21:04:26.235Z,23.68
2023-08-17T21:06:54.253Z,23.67
2023-08-17T21:09:22.324Z,23.65
2023-08-17T21:11:50.168Z,23.65
2023-08-17T21:14:18.236Z,23.64
2023-08-17T21:16:46.112Z,23.63
2023-08-17T21:19:14.088Z,23.61
2023-08-17T21:21:42.578Z,23.53
2023-08-17T21:24:10.566Z,23.39
2023-08-17T21:26:56.390Z,23.36
2023-08-17T21:29:24.401Z,23.32
2023-08-17T21:31:55.141Z,23.27
2023-08-17T21:34:23.387Z,23.24
2023-08-17T21:36:51.263Z,23.21
2023-08-17T21:39:19.662Z,23.16
2023-08-17T21:41:47.706Z,23.10
2023-08-17T21:44:15.420Z,23.03
2023-08-17T21:46:43.622Z,22.92
2023-08-17T21:49:11.616Z,22.80
2023-08-17T21:51:39.444Z,22.68
2023-08-17T21:54:07.469Z,22.55
2023-08-17T21:56:37.862Z,22.45
2023-08-17T21:59:05.736Z,22.37
2023-08-17T22:01:33.757Z,22.34
2023-08-17T22:04:02.135Z,22.29
2023-08-17T22:06:30.261Z,22.20
2023-08-17T22:08:58.248Z,22.13
2023-08-17T22:11:26.184Z,22.06
2023-08-17T22:13:53.959Z,21.98
2023-08-17T22:16:22.066Z,21.92
2023-08-17T22:18:51.068Z,21.87
2023-08-17T22:21:21.648Z,21.78
2023-08-17T22:23:49.626Z,21.63
2023-08-17T22:26:17.509Z,21.46
2023-08-17T22:28:45.481Z,21.35
2023-08-17T22:31:13.576Z,21.30
2023-08-17T22:33:41.387Z,21.24
2023-08-17T22:36:09.308Z,21.21
2023-08-17T22:38:37.209Z,21.17
2023-08-17T22:41:04.957Z,21.13
2023-08-17T22:43:32.785Z,21.09
2023-08-17T22:46:03.824Z,21.03
2023-08-17T22:48:34.177Z,20.98
2023-08-17T22:51:02.296Z,20.91
2023-08-17T22:53:30.362Z,20.85
2023-08-17T22:55:58.236Z,20.80
2023-08-17T22:58:26.097Z,20.76
2023-08-17T23:00:55.273Z,20.65
2023-08-17T23:03:23.156Z,20.52
2023-08-17T23:05:51.533Z,20.40
2023-08-17T23:08:19.597Z,20.32
2023-08-17T23:10:48.484Z,20.29
2023-08-17T23:13:16.378Z,20.31
2023-08-17T23:15:44.459Z,20.32
2023-08-17T23:18:12.484Z,20.28
2023-08-17T23:20:41.598Z,20.29
2023-08-17T23:23:09.530Z,20.28
2023-08-17T23:25:37.726Z,20.27
2023-08-17T23:28:06.384Z,20.23
2023-08-17T23:30:36.280Z,20.15
2023-08-17T23:33:05.498Z,20.03
2023-08-17T23:35:34.399Z,19.97
2023-08-17T23:38:02.709Z,20.00
2023-08-17T23:40:30.876Z,20.04
2023-08-17T23:42:58.830Z,20.01
2023-08-17T23:45:27.142Z,19.98
2023-08-17T23:47:55.041Z,19.95
2023-08-17T23:50:23.159Z,19.90
2023-08-17T23:52:51.271Z,19.78
2023-08-17T23:55:19.699Z,19.68
2023-08-17T23:57:47.998Z,19.57
